Time;durP1;ratioP1;P1;durP2;ratioP2;P2;SDS_P1;SDS_P2;PMS_P1;PMS_P2;Temp;Humidity;BMP_temperature;BMP_pressure;BME280_temperature;BME280_humidity;BME280_pressure;Samples;Min_cycle;Max_cycle;Signal;HPM_P1;HPM_P2
2021/05/27 02:44:37;;;;;;;23.67;11.97;;;10.90;99.90;;;;;;6214756;23;20439;-79
2021/05/27 02:47:03;;;;;;;21.70;11.87;;;10.80;99.90;;;;;;6216629;23;20432;-80
2021/05/27 02:49:35;;;;;;;21.23;10.90;;;10.90;99.90;;;;;;6227210;23;20404;-82
2021/05/27 03:37:45;;;;;;;27.93;20.30;;;10.60;99.90;;;;;;5779870;24;20648;-83
2021/05/27 03:48:44;;;;;;;29.17;18.00;;;10.60;99.90;;;;;;5766320;24;20209;-80
2021/05/27 04:28:23;;;;;;;22.47;10.93;;;11.00;99.90;;;;;;5729937;24;20956;-83
2021/05/27 04:34:48;;;;;;;;;;;;;;;;;;;;;
2021/05/27 04:37:14;;;;;;;21.57;13.43;;;10.80;99.90;;;;;;5851821;24;20420;-81
2021/05/27 04:39:45;;;;;;;21.57;13.10;;;10.70;99.90;;;;;;5896766;24;20425;-82
2021/05/27 04:42:13;;;;;;;28.27;18.53;;;10.60;99.90;;;;;;5907315;24;20463;-81
2021/05/27 04:45:14;;;;;;;29.40;19.80;;;10.60;99.90;;;;;;5994788;23;20440;-82
2021/05/27 04:48:15;;;;;;;;;;;;;;;;;;;;;
2021/05/27 04:50:58;;;;;;;24.70;21.93;;;10.50;99.90;;;;;;6068076;23;20419;-82
2021/05/27 04:53:28;;;;;;;27.10;18.13;;;10.50;99.90;;;;;;6074344;23;20496;-81
2021/05/27 04:55:59;;;;;;;24.00;20.13;;;10.50;99.90;;;;;;6075312;23;20420;-82
2021/05/27 05:01:54;;;;;;;24.27;21.00;;;10.50;99.90;;;;;;6062549;23;20461;-82
2021/05/27 05:04:33;;;;;;;26.07;21.40;;;10.60;99.90;;;;;;6075653;23;20734;-82
2021/05/27 05:07:12;;;;;;;29.93;19.80;;;10.60;99.90;;;;;;6074033;23;20877;-83
2021/05/27 05:09:40;;;;;;;26.73;20.80;;;10.60;99.90;;;;;;6075368;23;20421;-81
2021/05/27 05:12:16;;;;;;;23.57;19.17;;;10.60;99.90;;;;;;6065895;23;20405;-80
2021/05/27 05:14:44;;;;;;;28.83;22.13;;;10.60;99.90;;;;;;6065640;23;20436;-80
2021/05/27 05:17:18;;;;;;;29.40;22.00;;;10.60;99.90;;;;;;6184542;23;20416;-82
2021/05/27 05:19:47;;;;;;;31.73;24.60;;;10.60;99.90;;;;;;6195306;23;20755;-82
2021/05/27 05:22:18;;;;;;;27.27;22.70;;;10.80;99.90;;;;;;6184060;23;20409;-81
2021/05/27 05:24:47;;;;;;;31.10;23.90;;;10.80;99.90;;;;;;6195718;23;20765;-80
2021/05/27 05:27:19;;;;;;;26.77;23.37;;;10.80;99.90;;;;;;6185547;23;20397;-82
2021/05/27 05:30:10;;;;;;;29.97;24.50;;;10.80;99.90;;;;;;6185496;23;20435;-81
2021/05/27 05:32:40;;;;;;;41.13;31.60;;;10.80;99.90;;;;;;6195443;23;20471;-81
2021/05/27 05:35:17;;;;;;;35.27;31.70;;;10.80;99.90;;;;;;6195263;23;20508;-82
2021/05/27 05:37:44;;;;;;;37.73;29.43;;;10.80;99.90;;;;;;6193841;23;20869;-82
2021/05/27 05:41:01;;;;;;;29.30;22.30;;;10.70;99.90;;;;;;6185424;23;20424;-82
2021/05/27 05:51:00;;;;;;;46.53;42.00;;;10.50;99.90;;;;;;5816523;23;20835;-82
2021/05/27 05:54:00;;;;;;;49.70;45.97;;;10.50;99.90;;;;;;5882112;24;20425;-82
2021/05/27 05:56:39;;;;;;;63.70;59.30;;;10.60;99.90;;;;;;5945632;23;20455;-82
2021/05/27 05:59:22;;;;;;;67.10;62.40;;;10.60;99.90;;;;;;6095336;23;20749;-82
2021/05/27 06:02:09;;;;;;;;;;;;;;;;;;;;;
2021/05/27 06:04:50;;;;;;;73.40;68.70;;;10.60;99.90;;;;;;6184510;23;20409;-82
2021/05/27 06:07:23;;;;;;;69.37;64.17;;;10.50;99.90;;;;;;6183481;23;20401;-82
2021/05/27 06:13:31;;;;;;;70.83;65.57;;;10.40;99.90;;;;;;6165491;23;20947;-82
2021/05/27 06:16:01;;;;;;;79.83;74.50;;;10.30;99.90;;;;;;6194687;23;20713;-82
2021/05/27 06:18:27;;;;;;;130.17;123.13;;;10.30;99.90;;;;;;6184832;23;20402;-82
2021/05/27 06:20:59;;;;;;;122.70;115.63;;;10.30;99.90;;;;;;6184714;23;20401;-82
2021/05/27 06:23:36;;;;;;;161.97;152.77;;;10.30;99.90;;;;;;6194019;23;20408;-81
2021/05/27 06:26:03;;;;;;;170.70;162.30;;;10.30;99.90;;;;;;6185017;23;20400;-81
2021/05/27 06:28:47;;;;;;;185.53;176.03;;;10.40;99.90;;;;;;6184703;23;20884;-83
2021/05/27 06:31:50;;;;;;;186.57;176.53;;;10.40;99.90;;;;;;6195049;23;20443;-82
2021/05/27 06:34:52;;;;;;;;;;;;;;;;;;;;;
2021/05/27 06:40:49;;;;;;;209.50;199.30;;;10.50;99.90;;;;;;5865301;24;20427;-82
2021/05/27 06:43:26;;;;;;;180.20;170.40;;;10.60;99.90;;;;;;5955156;23;20428;-81
2021/05/27 06:46:50;;;;;;;;;;;;;;;;;;;;;
2021/05/27 07:59:53;;;;;;;;;;;;;;;;;;;;;
2021/05/27 08:11:56;;;;;;;;;;;;;;;;;;;;;
2021/05/27 08:49:47;;;;;;;;;;;;;;;;;;;;;
2021/05/27 08:56:16;;;;;;;;;;;;;;;;;;;;;
2021/05/27 09:09:20;;;;;;;;;;;;;;;;;;;;;
2021/05/27 09:18:28;;;;;;;;;;;;;;;;;;;;;
2021/05/27 09:45:45;;;;;;;;;;;;;;;;;;;;;
2021/05/27 09:48:40;;;;;;;48.40;44.70;;;10.90;99.90;;;;;;5830150;24;20214;-82
2021/05/27 09:51:49;;;;;;;;;;;;;;;;;;;;;
2021/05/27 09:55:22;;;;;;;41.70;38.10;;;11.00;99.90;;;;;;5984739;24;20891;-82
2021/05/27 09:58:15;;;;;;;44.23;40.50;;;10.80;99.90;;;;;;6039954;23;20447;-83
2021/05/27 10:03:44;;;;;;;66.13;62.00;;;10.70;99.90;;;;;;5945675;23;20420;-82
2021/05/27 10:06:25;;;;;;;68.30;64.00;;;10.70;99.90;;;;;;6140575;23;20762;-81
2021/05/27 10:09:06;;;;;;;79.27;74.30;;;10.70;99.90;;;;;;6155780;23;20557;-81
2021/05/27 10:11:45;;;;;;;105.87;100.23;;;10.50;99.90;;;;;;6126080;23;20402;-81
2021/05/27 10:14:56;;;;;;;142.20;135.50;;;10.50;99.90;;;;;;6135919;23;20394;-81
2021/05/27 10:17:25;;;;;;;138.00;131.20;;;10.40;99.90;;;;;;6017379;23;20870;-82
2021/05/27 10:20:25;;;;;;;;;;;;;;;;;;;;;
2021/05/27 10:23:04;;;;;;;146.23;139.53;;;10.50;99.90;;;;;;6124033;23;20407;-82
2021/05/27 10:26:02;;;;;;;183.40;175.07;;;10.60;99.90;;;;;;6118502;23;20773;-82
2021/05/27 11:20:45;;;;;;;;;;;;;;;;;;;;;
2021/05/27 11:27:04;;;;;;;;;;;;;;;;;;;;;
2021/05/27 12:28:53;;;;;;;24.60;5.80;;;15.50;67.40;;;;;;5704497;25;20826;-85
2021/05/27 12:48:47;;;;;;;20.93;5.50;;;13.60;90.30;;;;;;6085554;23;21549;-83
